createdAt,value
2022-08-25T00:03:21.811Z,1.77
2022-08-25T00:08:26.504Z,2.03
2022-08-25T00:13:30.340Z,1.40
2022-08-25T00:18:35.140Z,1.60
2022-08-25T00:23:38.375Z,1.88
2022-08-25T00:28:41.601Z,1.52
2022-08-25T00:33:48.032Z,2.00
2022-08-25T00:38:52.159Z,1.65
2022-08-25T00:43:57.567Z,2.15
2022-08-25T00:49:05.506Z,1.90
2022-08-25T00:54:09.832Z,2.00
2022-08-25T00:59:15.019Z,1.75
2022-08-25T01:04:31.685Z,1.70
2022-08-25T01:09:35.423Z,2.00
2022-08-25T01:14:39.519Z,2.08
2022-08-25T01:19:44.503Z,2.20
2022-08-25T01:24:57.325Z,2.10
2022-08-25T01:30:00.644Z,2.47
2022-08-25T01:35:03.909Z,2.28
2022-08-25T01:40:09.822Z,2.08
2022-08-25T01:45:13.060Z,2.28
2022-08-25T01:50:16.510Z,2.40
2022-08-25T01:55:21.298Z,2.30
2022-08-25T02:00:25.304Z,2.60
2022-08-25T02:05:28.439Z,2.30
2022-08-25T02:10:38.244Z,2.35
2022-08-25T02:15:43.157Z,1.98
2022-08-25T02:20:46.641Z,2.15
2022-08-25T02:25:51.248Z,2.55
2022-08-25T02:31:01.284Z,2.30
2022-08-25T02:36:05.478Z,2.25
2022-08-25T02:41:14.450Z,2.80
2022-08-25T02:46:23.271Z,2.28
2022-08-25T02:51:28.654Z,2.17
2022-08-25T02:56:34.007Z,2.72
2022-08-25T03:01:37.268Z,2.60
2022-08-25T03:06:41.015Z,2.40
2022-08-25T03:11:46.084Z,2.50
2022-08-25T03:16:49.342Z,2.55
2022-08-25T03:21:56.290Z,3.05
2022-08-25T03:27:00.914Z,2.83
2022-08-25T03:32:05.415Z,2.85
2022-08-25T03:37:08.757Z,2.45
2022-08-25T03:42:13.608Z,3.17
2022-08-25T03:47:16.869Z,2.80
2022-08-25T03:52:20.470Z,3.15
2022-08-25T03:57:25.019Z,2.60
2022-08-25T04:02:28.443Z,2.88
2022-08-25T04:07:31.646Z,2.88
2022-08-25T04:12:36.408Z,3.45
2022-08-25T04:17:40.870Z,2.92
2022-08-25T04:22:45.135Z,3.42
2022-08-25T04:27:50.754Z,3.90
2022-08-25T04:32:53.971Z,3.50
2022-08-25T04:37:57.164Z,3.50
2022-08-25T04:43:01.982Z,3.15
2022-08-25T04:48:05.665Z,3.20
2022-08-25T04:53:08.973Z,3.13
2022-08-25T04:58:14.585Z,3.20
2022-08-25T05:03:19.897Z,4.53
2022-08-25T05:08:23.163Z,2.75
2022-08-25T05:13:28.116Z,3.75
2022-08-25T05:18:34.360Z,3.60
2022-08-25T05:23:37.953Z,3.03
2022-08-25T05:28:43.085Z,2.92
2022-08-25T05:33:46.626Z,3.17
2022-08-25T05:38:50.376Z,3.22
2022-08-25T05:43:55.397Z,3.38
2022-08-25T05:48:59.086Z,2.70
2022-08-25T05:54:03.577Z,2.88
2022-08-25T05:59:09.543Z,2.92
2022-08-25T06:04:13.165Z,2.72
2022-08-25T06:09:16.723Z,2.67
2022-08-25T06:14:21.700Z,3.42
2022-08-25T06:19:25.091Z,3.08
2022-08-25T06:24:29.903Z,2.70
2022-08-25T06:29:34.603Z,2.58
2022-08-25T06:34:37.853Z,1.58
2022-08-25T06:39:41.559Z,2.17
2022-08-25T06:44:46.369Z,2.10
2022-08-25T06:49:49.557Z,2.30
2022-08-25T06:54:53.285Z,2.22
2022-08-25T06:59:57.991Z,2.28
2022-08-25T07:05:01.638Z,2.40
2022-08-25T07:10:05.977Z,2.60
2022-08-25T07:15:24.508Z,3.20
2022-08-25T07:20:27.711Z,2.63
2022-08-25T07:25:31.915Z,2.72
2022-08-25T07:30:36.603Z,2.30
2022-08-25T07:35:43.786Z,2.13
2022-08-25T07:40:54.747Z,3.00
2022-08-25T07:46:01.750Z,3.20
2022-08-25T07:51:09.404Z,2.80
2022-08-25T07:56:14.074Z,2.58
2022-08-25T08:01:20.623Z,3.10
2022-08-25T08:06:25.844Z,3.47
2022-08-25T08:11:31.842Z,3.00
2022-08-25T08:16:37.500Z,3.28
2022-08-25T08:21:42.855Z,2.92
2022-08-25T08:26:58.134Z,3.00
2022-08-25T08:32:03.366Z,3.03
2022-08-25T08:37:06.678Z,3.15
2022-08-25T08:42:39.769Z,2.97
2022-08-25T08:47:58.576Z,2.97
2022-08-25T08:53:08.237Z,2.97
2022-08-25T08:58:17.351Z,2.70
2022-08-25T09:03:30.259Z,3.33
2022-08-25T09:08:33.567Z,3.50
2022-08-25T09:13:49.412Z,3.30
2022-08-25T09:19:04.548Z,3.08
2022-08-25T09:24:24.270Z,3.08
2022-08-25T09:29:38.150Z,3.03
2022-08-25T09:34:42.971Z,3.30
2022-08-25T09:39:46.360Z,2.90
2022-08-25T09:44:50.915Z,3.25
2022-08-25T09:50:00.357Z,3.13
2022-08-25T09:55:28.608Z,2.90
2022-08-25T10:00:34.613Z,2.97
2022-08-25T10:05:56.127Z,3.00
2022-08-25T10:11:02.082Z,2.80
2022-08-25T10:16:19.957Z,3.22
2022-08-25T10:21:29.482Z,3.00
2022-08-25T10:26:41.632Z,3.20
2022-08-25T10:31:53.105Z,3.33
2022-08-25T10:37:09.228Z,3.03
2022-08-25T10:42:29.992Z,3.03
2022-08-25T10:47:45.978Z,2.72
2022-08-25T10:53:09.216Z,2.80
2022-08-25T10:58:23.280Z,2.53
2022-08-25T11:03:40.888Z,2.60
2022-08-25T11:08:49.215Z,2.85
2022-08-25T11:13:58.010Z,2.35
2022-08-25T11:19:10.427Z,2.20
2022-08-25T11:24:41.237Z,2.30
2022-08-25T11:29:51.469Z,2.58
2022-08-25T11:34:55.259Z,2.42
2022-08-25T11:40:40.538Z,2.10
2022-08-25T11:46:02.711Z,2.20
2022-08-25T11:51:09.569Z,2.00
2022-08-25T11:56:33.038Z,1.85
2022-08-25T12:02:28.778Z,2.00
2022-08-25T12:08:14.146Z,2.10
2022-08-25T12:13:42.670Z,2.58
2022-08-25T12:18:50.530Z,2.17
2022-08-25T12:24:10.871Z,2.50
2022-08-25T12:29:23.128Z,2.08
2022-08-25T12:34:44.596Z,2.15
2022-08-25T12:40:01.952Z,1.98
2022-08-25T12:45:15.375Z,2.00
2022-08-25T12:50:37.370Z,2.08
2022-08-25T12:55:45.201Z,2.00
2022-08-25T13:01:17.540Z,1.95
2022-08-25T13:06:48.889Z,1.55
2022-08-25T13:12:02.192Z,1.70
2022-08-25T13:17:09.531Z,2.03
2022-08-25T13:27:51.813Z,1.80
2022-08-25T13:32:56.839Z,1.80
2022-08-25T13:38:14.910Z,1.60
2022-08-25T13:43:18.421Z,1.50
2022-08-25T13:48:36.946Z,1.67
2022-08-25T13:53:49.431Z,1.67
2022-08-25T13:58:52.755Z,1.90
2022-08-25T14:04:25.608Z,1.92
2022-08-25T14:09:40.570Z,1.90
2022-08-25T14:14:44.537Z,2.10
2022-08-25T14:19:49.489Z,1.80
2022-08-25T14:24:54.370Z,1.95
2022-08-25T14:29:57.840Z,2.13
2022-08-25T14:35:10.700Z,2.20
2022-08-25T14:40:22.690Z,1.92
2022-08-25T14:45:26.339Z,1.92
2022-08-25T14:50:30.976Z,1.85
2022-08-25T14:55:36.433Z,2.00
2022-08-25T15:00:43.312Z,2.10
2022-08-25T15:05:49.468Z,2.05
2022-08-25T15:10:53.315Z,2.78
2022-08-25T15:15:58.078Z,1.92
2022-08-25T15:21:03.023Z,1.90
2022-08-25T15:26:09.305Z,1.73
2022-08-25T15:31:13.250Z,1.90
2022-08-25T15:36:24.604Z,1.88
2022-08-25T15:41:29.577Z,1.75
2022-08-25T15:46:33.091Z,1.83
2022-08-25T15:52:03.884Z,2.03
2022-08-25T15:57:08.797Z,1.90
2022-08-25T16:02:15.067Z,1.83
2022-08-25T16:07:21.311Z,1.42
2022-08-25T16:12:26.435Z,1.60
2022-08-25T16:17:31.268Z,1.70
2022-08-25T16:22:35.907Z,1.92
2022-08-25T16:27:39.333Z,1.95
2022-08-25T16:32:42.626Z,1.98
2022-08-25T16:37:49.607Z,2.10
2022-08-25T16:42:52.941Z,1.90
2022-08-25T16:47:56.503Z,1.70
2022-08-25T16:53:18.467Z,2.25
2022-08-25T16:58:21.810Z,1.98
2022-08-25T17:03:25.078Z,2.10
2022-08-25T17:08:30.519Z,1.98
2022-08-25T17:13:34.275Z,2.20
2022-08-25T17:18:38.385Z,2.75
2022-08-25T17:23:55.506Z,2.20
2022-08-25T17:28:59.683Z,2.40
2022-08-25T17:34:03.321Z,2.40
2022-08-25T17:39:09.765Z,2.47
2022-08-25T17:44:13.440Z,2.40
2022-08-25T17:49:19.275Z,2.88
2022-08-25T17:54:23.824Z,2.30
2022-08-25T17:59:28.208Z,2.63
2022-08-25T18:04:36.142Z,2.53
2022-08-25T18:09:42.419Z,2.60
2022-08-25T18:14:46.015Z,2.35
2022-08-25T18:19:49.779Z,2.80
2022-08-25T18:24:54.506Z,2.58
2022-08-25T18:29:58.973Z,2.45
2022-08-25T18:35:02.546Z,2.33
2022-08-25T18:40:27.363Z,3.00
2022-08-25T18:45:33.045Z,2.50
2022-08-25T18:50:38.716Z,2.20
2022-08-25T18:55:45.228Z,2.47
2022-08-25T19:00:48.926Z,3.00
2022-08-25T19:05:55.035Z,2.30
2022-08-25T19:11:02.295Z,2.20
2022-08-25T19:16:11.782Z,2.42
2022-08-25T19:21:15.535Z,1.95
2022-08-25T19:26:20.833Z,2.40
2022-08-25T19:31:26.860Z,2.20
2022-08-25T19:36:31.481Z,1.98
2022-08-25T19:41:36.305Z,2.50
2022-08-25T19:46:43.087Z,2.17
2022-08-25T19:51:50.543Z,2.00
2022-08-25T19:56:57.354Z,2.08
2022-08-25T20:02:00.820Z,2.40
2022-08-25T20:07:04.441Z,2.25
2022-08-25T20:12:10.390Z,2.28
2022-08-25T20:17:13.781Z,2.28
2022-08-25T20:22:28.465Z,1.92
2022-08-25T20:27:36.179Z,2.30
2022-08-25T20:32:40.046Z,2.22
2022-08-25T20:37:45.874Z,2.70
2022-08-25T20:42:50.789Z,2.42
2022-08-25T20:47:53.972Z,2.67
2022-08-25T20:52:58.762Z,1.98
2022-08-25T20:58:04.140Z,2.20
2022-08-25T21:03:07.518Z,2.38
2022-08-25T21:08:12.530Z,2.30
2022-08-25T21:13:17.084Z,2.55
2022-08-25T21:18:21.384Z,2.28
2022-08-25T21:23:24.819Z,2.47
2022-08-25T21:28:29.393Z,2.10
2022-08-25T21:33:32.665Z,2.45
2022-08-25T21:38:36.115Z,2.40
2022-08-25T21:43:47.818Z,2.40
2022-08-25T21:48:51.637Z,2.42
2022-08-25T21:54:10.175Z,3.03
2022-08-25T21:59:16.976Z,2.55
2022-08-25T22:04:21.054Z,2.90
2022-08-25T22:09:24.789Z,2.72
2022-08-25T22:14:30.298Z,3.65
2022-08-25T22:19:33.546Z,2.80
2022-08-25T22:24:36.900Z,2.85
2022-08-25T22:29:41.571Z,3.22
2022-08-25T22:34:46.062Z,3.25
2022-08-25T22:39:50.397Z,3.28
2022-08-25T22:44:55.147Z,3.22
2022-08-25T22:49:59.678Z,3.35
2022-08-25T22:55:03.966Z,3.33
2022-08-25T23:00:12.927Z,3.53
2022-08-25T23:05:16.800Z,3.13
2022-08-25T23:10:20.914Z,3.20
2022-08-25T23:15:25.978Z,3.08
2022-08-25T23:20:47.775Z,2.92
2022-08-25T23:25:51.081Z,3.00
2022-08-25T23:30:59.107Z,3.22
2022-08-25T23:36:05.196Z,3.30
2022-08-25T23:41:09.077Z,3.10
2022-08-25T23:46:14.488Z,3.08
2022-08-25T23:51:24.099Z,2.78
2022-08-25T23:56:27.567Z,2.80
